Braddock, New Jersey
Current Conditions -  °F | °C
As of 7:08 AM on Monday 24 Nov 2014 (Local Time) from KACY Reporting Station
Light Rain Light Rain  
Wind Chill: 61°   Ceiling: 400
Heat Index: 61°   Visibility: 3mi
Dew Point: 61°   Wind: 15mph
Humidity: 100%   Direction: 200°SSW
Pressure: 29.75"   Gusts: NA
Location:  39.637°N, 74.7602°W
Report Text: KACY 241208Z 20013KT 3SM -RA BR OVC004 16/16 A2975 RMK AO2 RAB1159 P0000 T01610161
Loading
Personal Weather Stations






























Interactive Weather Map New forecast layout! Learn more

10-Day Weather Forecast

Advertisements
Track Severe Weather on mobile